Hlavní strana
METAR-TAF:

METAR-TAF

Letiště :

Mezinárodní letiště Dubaj

Dubaj, Spojené arabské emiráty

zeměpisná šířka: 25-15-10N, zeměpisná délka: 055-21-52E, výška: 8 m

Aktuální stav počasí

Zpráva byla vytvořena před 1 hodinou a 3 minutami, v 21:00 UTC
Východojihovýchodní vítr 6 kt
Teplota 35°C
Vlhkost vzduchu 42%
Tlak 1005 hPa
Viditelnost 10 km a více
Žádná oblačnost pod 1500 m, nevyskytují se cumulonimby.

METAR: OMDB 182100Z 11006KT CAVOK 35/20 Q1005 NOSIG

Čas: 02:03 (22:03 UTC)

Předpověď počasí

Zpráva byla vytvořena před 5 hodinami a 10 minutami, v 16:53 UTC
Předpověď platná od 18 v 18 UTC do 20 v 00 UTC
Východní vítr 7 kt
Viditelnost 10 km a více
Žádná oblačnost pod 1500 m, nevyskytují se cumulonimby.
Změna
od 19 v 03 UTC do 19 v 05 UTC
Jižní vítr 12 kt
Změna
od 19 v 08 UTC do 19 v 10 UTC
Západoseverozápadní vítr 12 kt
Změna
od 19 v 15 UTC do 19 v 17 UTC
Východní vítr 5 kt

TAF: OMDB 181653Z 1818/2000 09007KT CAVOK BECMG 1903/1905 19012KT BECMG 1908/1910 29012KT BECMG 1915/1917 09005KT

Stav a předpovědi počasí z více než 4 000 letišť (zprávy METAR a TAF).

Červené a žluté tečky na mapě představují dostupné meteorologické stanice.

Když kurzor umístíte na tečku, zobrazí se název stanice.

Pak kliknutím zobrazíte stav a předpověď počasí.

Chcete-li změnit mapu, kliknutím na zelené tlačítko se znaménkem +mapu přiblížíte, kliknutím na zelené tlačítko se znaménkem – mapu oddálíte a kliknutím na zelené šipky přejdete na sousední mapy.


METAR-TAF: